Time;durP1;ratioP1;P1;durP2;ratioP2;P2;SDS_P1;SDS_P2;PMS_P1;PMS_P2;Temp;Humidity;BMP_temperature;BMP_pressure;BME280_temperature;BME280_humidity;BME280_pressure;Samples;Min_cycle;Max_cycle;Signal;HPM_P1;HPM_P2
2021/03/08 00:02:16;;;;;;;29.77;14.10;;;1.10;99.90;;;;;;5050368;28;20214;-84
2021/03/08 00:04:41;;;;;;;21.33;11.07;;;1.10;99.90;;;;;;5050920;28;20331;-86
2021/03/08 00:07:07;;;;;;;29.53;15.37;;;1.10;99.90;;;;;;5066869;28;20278;-84
2021/03/08 00:09:33;;;;;;;17.50;9.93;;;1.10;99.90;;;;;;5083438;28;20543;-86
2021/03/08 00:11:58;;;;;;;21.67;12.63;;;1.10;99.90;;;;;;5050154;28;20197;-88
2021/03/08 00:14:24;;;;;;;20.43;13.73;;;1.10;99.90;;;;;;5050143;28;20194;-86
2021/03/08 00:16:50;;;;;;;17.93;10.67;;;1.10;99.90;;;;;;5083649;28;20187;-86
2021/03/08 00:19:16;;;;;;;23.80;14.27;;;1.10;99.90;;;;;;5051541;28;20630;-87
2021/03/08 00:21:42;;;;;;;23.63;11.03;;;1.10;99.90;;;;;;5051175;28;20629;-87
2021/03/08 00:24:07;;;;;;;24.83;14.53;;;1.10;99.90;;;;;;5049580;28;20218;-88
2021/03/08 00:26:33;;;;;;;22.27;11.10;;;1.10;99.90;;;;;;5050888;28;20195;-87
2021/03/08 00:28:59;;;;;;;17.17;12.50;;;1.10;99.90;;;;;;5051610;28;20199;-87
2021/03/08 00:31:24;;;;;;;20.83;11.17;;;1.10;99.90;;;;;;5066323;28;20203;-84
2021/03/08 00:33:50;;;;;;;19.70;11.63;;;1.10;99.90;;;;;;5049941;28;20202;-86
2021/03/08 00:36:16;;;;;;;18.43;12.00;;;1.20;99.90;;;;;;5083818;28;20206;-86
2021/03/08 00:38:41;;;;;;;20.77;11.67;;;1.20;99.90;;;;;;5049602;28;20183;-86
2021/03/08 00:41:07;;;;;;;21.77;11.30;;;1.20;99.90;;;;;;5051399;28;20274;-86
2021/03/08 00:43:33;;;;;;;20.43;12.10;;;1.20;99.90;;;;;;5050313;28;20724;-87
2021/03/08 00:45:58;;;;;;;24.80;14.10;;;1.10;99.90;;;;;;5051375;28;20193;-87
2021/03/08 00:48:24;;;;;;;22.47;12.17;;;1.10;99.90;;;;;;5050957;28;20219;-86
2021/03/08 00:50:50;;;;;;;18.03;9.77;;;1.10;99.90;;;;;;5066573;28;20662;-86
2021/03/08 00:53:15;;;;;;;26.80;11.93;;;1.30;99.90;;;;;;5050936;28;20245;-87
2021/03/08 00:55:41;;;;;;;24.40;11.83;;;1.30;99.90;;;;;;5050685;28;20180;-85
2021/03/08 00:58:07;;;;;;;20.70;12.60;;;1.30;99.90;;;;;;5083538;28;20196;-85
2021/03/08 01:00:33;;;;;;;21.17;12.13;;;1.20;99.90;;;;;;5049283;28;20191;-84
2021/03/08 01:02:59;;;;;;;22.33;13.17;;;1.30;99.90;;;;;;5050229;28;20627;-84
2021/03/08 01:05:24;;;;;;;19.27;11.73;;;1.20;99.90;;;;;;5051010;28;20192;-85
2021/03/08 01:07:51;;;;;;;20.23;11.07;;;1.20;99.90;;;;;;5036693;28;20184;-85
2021/03/08 01:10:26;;;;;;;24.73;13.83;;;1.20;99.90;;;;;;5049535;28;20185;-85
2021/03/08 01:12:52;;;;;;;20.17;12.20;;;1.20;99.90;;;;;;5050665;28;20200;-85
2021/03/08 01:15:18;;;;;;;22.43;13.97;;;1.20;99.90;;;;;;5050523;28;20653;-85
2021/03/08 01:17:44;;;;;;;22.37;12.00;;;1.20;99.90;;;;;;5050146;28;20187;-86
2021/03/08 01:20:15;;;;;;;26.93;14.50;;;1.20;99.90;;;;;;5050743;28;20260;-85
2021/03/08 01:22:41;;;;;;;25.93;13.03;;;1.20;99.90;;;;;;5050208;28;20617;-87
2021/03/08 01:25:17;;;;;;;23.63;15.13;;;1.20;99.90;;;;;;5051214;28;20213;-87
2021/03/08 01:27:42;;;;;;;25.87;16.07;;;1.20;99.90;;;;;;5054647;28;20706;-87
2021/03/08 01:30:15;;;;;;;27.03;16.50;;;1.20;99.90;;;;;;5069815;28;20445;-87
2021/03/08 01:32:41;;;;;;;14.07;6.87;;;1.10;99.90;;;;;;5054430;28;20273;-87
2021/03/08 01:35:07;;;;;;;5.77;4.33;;;0.90;99.90;;;;;;5054008;28;20266;-88
2021/03/08 01:37:33;;;;;;;5.70;3.60;;;0.70;99.90;;;;;;5054087;28;20184;-86
2021/03/08 01:40:00;;;;;;;13.53;5.87;;;0.70;99.90;;;;;;5036467;28;20552;-86
2021/03/08 01:42:26;;;;;;;9.47;4.50;;;0.60;99.90;;;;;;5053620;28;20178;-87
2021/03/08 01:44:52;;;;;;;12.63;5.47;;;0.50;99.90;;;;;;5053711;28;20685;-87
2021/03/08 01:47:18;;;;;;;8.40;4.23;;;0.50;99.90;;;;;;5054674;28;20675;-87
2021/03/08 01:49:44;;;;;;;10.00;5.00;;;0.40;99.90;;;;;;5054156;28;20195;-86
2021/03/08 01:52:10;;;;;;;8.40;4.33;;;0.30;99.90;;;;;;5054110;28;20257;-86
2021/03/08 01:54:36;;;;;;;10.47;5.60;;;0.30;99.90;;;;;;5053845;28;20207;-87
2021/03/08 01:57:03;;;;;;;20.73;9.73;;;0.20;99.90;;;;;;5054117;28;20195;-87
2021/03/08 01:59:29;;;;;;;18.07;8.33;;;0.20;99.90;;;;;;5053085;28;20659;-87
2021/03/08 02:01:57;;;;;;;15.67;5.80;;;0.70;99.90;;;;;;5054248;28;20322;-86
2021/03/08 02:04:22;;;;;;;8.37;4.40;;;0.20;99.90;;;;;;5052126;28;20348;-86
2021/03/08 02:06:48;;;;;;;6.97;4.13;;;0.20;99.90;;;;;;5053621;28;20640;-86
2021/03/08 02:09:15;;;;;;;4.50;3.17;;;0.60;99.90;;;;;;5053572;28;20619;-86
2021/03/08 02:11:42;;;;;;;7.60;3.73;;;0.50;99.90;;;;;;5053330;28;20185;-86
2021/03/08 02:15:12;;;;;;;6.43;2.83;;;0.60;99.90;;;;;;5053474;28;20267;-86
2021/03/08 02:17:45;;;;;;;6.97;3.17;;;0.20;99.90;;;;;;5048743;28;20227;-86
2021/03/08 02:20:46;;;;;;;5.30;2.93;;;0.80;99.90;;;;;;5051612;28;20191;-87
2021/03/08 02:23:37;;;;;;;6.40;3.07;;;0.60;99.90;;;;;;5040702;28;20611;-86
2021/03/08 02:26:21;;;;;;;6.23;2.33;;;0.10;99.90;;;;;;5053465;28;20551;-85
2021/03/08 02:28:46;;;;;;;6.53;2.20;;;0.80;99.90;;;;;;5053165;28;20191;-86
2021/03/08 02:31:21;;;;;;;5.63;2.83;;;0.10;99.90;;;;;;5052257;28;20202;-86
2021/03/08 02:33:59;;;;;;;5.10;2.77;;;0.00;99.90;;;;;;5052653;28;20196;-86
2021/03/08 02:36:31;;;;;;;4.40;2.47;;;0.00;99.90;;;;;;5051662;28;20282;-87
2021/03/08 02:39:08;;;;;;;7.67;3.23;;;-0.10;99.90;;;;;;5051914;28;20282;-87
2021/03/08 02:41:35;;;;;;;8.57;4.17;;;-0.10;99.90;;;;;;5053919;28;20183;-87
2021/03/08 02:44:07;;;;;;;10.83;4.80;;;0.90;99.90;;;;;;5052798;28;20213;-86
2021/03/08 02:46:40;;;;;;;4.33;2.20;;;-0.10;99.90;;;;;;5053350;28;20256;-86
2021/03/08 02:49:27;;;;;;;4.17;1.97;;;-0.10;99.90;;;;;;5052974;28;20184;-86
2021/03/08 02:52:23;;;;;;;3.47;1.83;;;0.70;99.90;;;;;;5052520;28;20547;-87
2021/03/08 02:54:53;;;;;;;3.93;2.23;;;-0.10;99.90;;;;;;5052413;28;20277;-86
2021/03/08 02:57:23;;;;;;;4.00;2.37;;;-0.20;99.90;;;;;;5053029;28;20656;-86
2021/03/08 02:59:50;;;;;;;6.07;2.90;;;-0.20;99.90;;;;;;5051649;28;20750;-86
2021/03/08 03:02:17;;;;;;;3.67;2.43;;;-0.30;99.90;;;;;;5053285;28;20212;-86
2021/03/08 03:04:46;;;;;;;7.07;2.93;;;-0.30;99.90;;;;;;5052509;28;20773;-84
2021/03/08 03:07:13;;;;;;;4.20;2.97;;;-0.30;99.90;;;;;;5052634;28;20192;-86
2021/03/08 03:09:41;;;;;;;3.37;2.40;;;-0.30;99.90;;;;;;5052568;28;20191;-87
2021/03/08 03:12:10;;;;;;;3.17;2.27;;;-0.40;99.90;;;;;;5052358;28;20628;-87
2021/03/08 03:14:36;;;;;;;2.60;2.23;;;-0.40;99.90;;;;;;5035180;28;20697;-87
2021/03/08 03:17:07;;;;;;;3.33;2.40;;;0.60;99.90;;;;;;5052238;28;20226;-86
2021/03/08 03:19:36;;;;;;;2.50;2.10;;;-0.50;99.90;;;;;;5051438;28;20179;-86
2021/03/08 03:22:04;;;;;;;5.53;3.13;;;2.00;99.90;;;;;;5052093;28;20214;-86
2021/03/08 03:24:31;;;;;;;7.90;2.97;;;-0.40;99.90;;;;;;5050868;28;20218;-86
2021/03/08 03:26:59;;;;;;;16.30;5.27;;;-0.50;99.90;;;;;;5070403;28;20253;-86
2021/03/08 03:29:26;;;;;;;36.00;9.73;;;-0.50;99.90;;;;;;5052552;28;20215;-86
2021/03/08 03:31:52;;;;;;;24.53;9.37;;;-0.50;99.90;;;;;;5051771;28;20189;-87
2021/03/08 03:34:19;;;;;;;38.97;13.47;;;-0.50;99.90;;;;;;5052221;28;20180;-86
2021/03/08 03:36:48;;;;;;;19.27;7.60;;;0.50;99.90;;;;;;5052196;28;20277;-87
2021/03/08 03:39:14;;;;;;;24.20;8.83;;;0.50;99.90;;;;;;5052045;28;20181;-87
2021/03/08 03:41:40;;;;;;;15.17;7.07;;;-0.50;99.90;;;;;;5052626;28;20199;-86
2021/03/08 03:44:08;;;;;;;11.60;5.10;;;-0.60;99.90;;;;;;5050289;28;20273;-86
2021/03/08 03:46:40;;;;;;;14.83;5.47;;;-0.60;99.90;;;;;;5052102;28;20209;-87
2021/03/08 03:49:06;;;;;;;5.87;3.93;;;0.90;99.90;;;;;;5051236;28;20190;-92
2021/03/08 03:51:32;;;;;;;10.17;3.97;;;0.00;99.90;;;;;;5050595;28;20183;-87
2021/03/08 03:53:57;;;;;;;5.67;4.03;;;-0.60;99.90;;;;;;5049743;28;20193;-86
2021/03/08 03:56:26;;;;;;;10.27;5.93;;;-0.70;99.90;;;;;;5052260;28;20197;-86
2021/03/08 03:58:57;;;;;;;9.50;5.23;;;0.00;99.90;;;;;;5051738;28;20207;-86
2021/03/08 04:01:31;;;;;;;9.80;5.70;;;-0.60;99.90;;;;;;5052125;28;20197;-86
2021/03/08 04:04:08;;;;;;;11.30;5.23;;;0.60;99.90;;;;;;5050589;28;20347;-85
2021/03/08 04:06:40;;;;;;;10.50;5.67;;;-0.70;99.90;;;;;;5052124;28;20181;-86
2021/03/08 04:09:09;;;;;;;9.83;4.97;;;-0.70;99.90;;;;;;5049560;28;20516;-86
2021/03/08 04:11:38;;;;;;;5.40;3.00;;;0.00;99.90;;;;;;5051610;28;20194;-86
2021/03/08 04:14:05;;;;;;;12.77;3.87;;;-0.70;99.90;;;;;;5050190;28;20200;-88
2021/03/08 04:16:33;;;;;;;5.97;3.80;;;0.50;99.90;;;;;;5050061;28;20850;-86
2021/03/08 04:19:01;;;;;;;5.47;3.47;;;-0.80;99.90;;;;;;5050750;28;20192;-86
2021/03/08 04:21:28;;;;;;;7.57;4.40;;;-0.90;99.90;;;;;;5051166;28;20294;-85
2021/03/08 04:23:56;;;;;;;5.90;4.07;;;-0.90;99.90;;;;;;5050465;28;20235;-85
2021/03/08 04:26:22;;;;;;;13.83;5.90;;;0.50;99.90;;;;;;5050922;28;20212;-85
2021/03/08 04:28:49;;;;;;;14.53;6.27;;;-0.50;99.90;;;;;;5049713;28;20607;-86
2021/03/08 04:31:17;;;;;;;9.97;4.07;;;-0.10;99.90;;;;;;5033173;28;20565;-85
2021/03/08 04:33:45;;;;;;;16.67;6.33;;;0.20;99.90;;;;;;5050790;28;20180;-86
2021/03/08 04:36:12;;;;;;;8.57;4.60;;;-1.10;99.90;;;;;;5051028;28;20260;-87
2021/03/08 04:38:41;;;;;;;14.17;5.57;;;-1.00;99.90;;;;;;5051259;28;20184;-86
2021/03/08 04:41:09;;;;;;;13.17;5.30;;;-1.10;99.90;;;;;;5049383;28;20213;-86
2021/03/08 04:43:37;;;;;;;15.00;6.13;;;-1.10;99.90;;;;;;5049317;28;20237;-86
2021/03/08 04:46:03;;;;;;;17.33;7.70;;;-0.80;99.90;;;;;;5053410;28;20189;-86
2021/03/08 04:48:29;;;;;;;11.90;6.33;;;-0.80;99.90;;;;;;5060932;28;20224;-86
2021/03/08 04:50:57;;;;;;;15.80;6.20;;;-0.90;99.90;;;;;;5064767;28;20242;-90
2021/03/08 04:53:22;;;;;;;13.90;5.13;;;-1.20;99.90;;;;;;5068097;28;20194;-89
2021/03/08 04:55:49;;;;;;;10.87;5.10;;;-0.40;99.90;;;;;;5062604;28;20191;-89
2021/03/08 04:58:15;;;;;;;11.73;5.17;;;-1.20;99.90;;;;;;5068258;28;20240;-88
2021/03/08 05:00:41;;;;;;;14.30;5.47;;;-0.30;99.90;;;;;;5041348;28;20649;-88
2021/03/08 05:03:06;;;;;;;12.73;5.30;;;-1.30;99.90;;;;;;5050220;28;20317;-88
2021/03/08 05:05:33;;;;;;;10.70;5.10;;;-1.10;99.90;;;;;;5050043;28;20202;-91
2021/03/08 05:08:04;;;;;;;10.57;5.13;;;0.00;99.90;;;;;;5050586;28;20741;-86
2021/03/08 05:10:31;;;;;;;15.03;5.50;;;-1.40;99.90;;;;;;5049204;28;20180;-88
2021/03/08 05:12:59;;;;;;;19.00;5.90;;;-1.00;99.90;;;;;;5058105;28;20723;-88
2021/03/08 05:15:27;;;;;;;12.20;6.30;;;-1.30;99.90;;;;;;5049187;28;20186;-90
2021/03/08 05:17:56;;;;;;;12.10;4.93;;;-1.40;99.90;;;;;;5038777;28;20172;-89
2021/03/08 05:20:23;;;;;;;11.90;4.77;;;-0.80;99.90;;;;;;5062750;28;20177;-91
2021/03/08 05:22:49;;;;;;;9.97;5.50;;;-1.00;99.90;;;;;;5059845;28;20180;-91
2021/03/08 05:25:15;;;;;;;11.57;6.30;;;-0.10;99.90;;;;;;5048484;28;20205;-91
2021/03/08 05:27:44;;;;;;;12.17;7.33;;;-1.30;99.90;;;;;;5050690;28;20179;-90
2021/03/08 05:30:15;;;;;;;15.30;9.27;;;0.30;99.90;;;;;;5049528;28;20232;-90
2021/03/08 05:32:50;;;;;;;14.87;8.07;;;-1.20;99.90;;;;;;5049161;28;20182;-90
2021/03/08 05:35:16;;;;;;;10.87;6.73;;;0.30;99.90;;;;;;5049633;28;20213;-90
2021/03/08 05:37:43;;;;;;;12.23;6.70;;;-1.30;99.90;;;;;;5050949;28;20206;-91
2021/03/08 05:40:20;;;;;;;11.60;6.20;;;-0.20;99.90;;;;;;5050129;28;20196;-91
2021/03/08 05:42:52;;;;;;;10.33;6.03;;;-1.30;99.90;;;;;;5049187;28;20652;-90
2021/03/08 05:45:26;;;;;;;16.10;6.07;;;-1.40;99.90;;;;;;5058302;28;20208;-86
2021/03/08 05:48:07;;;;;;;13.77;5.27;;;-1.40;99.90;;;;;;5061720;28;20190;-86
2021/03/08 05:51:20;;;;;;;9.93;5.07;;;-1.30;99.90;;;;;;5066778;28;20180;-85
2021/03/08 05:54:01;;;;;;;10.93;5.63;;;-1.40;99.90;;;;;;5038727;28;20189;-85
2021/03/08 05:56:51;;;;;;;9.63;4.87;;;-1.30;99.90;;;;;;5044973;28;20193;-91
2021/03/08 05:59:42;;;;;;;10.93;6.60;;;-1.20;99.90;;;;;;5060944;28;20192;-87
2021/03/08 06:02:46;;;;;;;13.60;5.90;;;-1.30;99.90;;;;;;5069332;28;20224;-93
2021/03/08 06:05:26;;;;;;;12.60;6.03;;;-1.20;99.90;;;;;;5075377;28;20238;-88
2021/03/08 06:08:10;;;;;;;12.53;6.40;;;-1.10;99.90;;;;;;5053575;28;20759;-88
2021/03/08 06:10:46;;;;;;;13.10;7.27;;;0.50;99.90;;;;;;5063363;28;20210;-88
2021/03/08 06:13:18;;;;;;;16.23;6.57;;;0.10;99.90;;;;;;5057792;28;20160;-89
2021/03/08 06:15:49;;;;;;;14.70;7.20;;;-1.20;99.90;;;;;;5054429;28;20255;-88
2021/03/08 06:18:16;;;;;;;15.57;8.53;;;-0.40;99.90;;;;;;5054277;28;20170;-87
2021/03/08 06:20:43;;;;;;;16.43;8.33;;;0.10;99.90;;;;;;5055285;28;20269;-87
2021/03/08 06:23:10;;;;;;;15.50;7.07;;;-0.70;99.90;;;;;;5054107;28;20168;-86
2021/03/08 06:25:39;;;;;;;16.73;7.10;;;0.20;99.90;;;;;;5070084;28;20644;-88
2021/03/08 06:28:08;;;;;;;13.20;6.80;;;-1.00;99.90;;;;;;5054760;28;20170;-91
2021/03/08 06:30:34;;;;;;;15.17;7.23;;;-0.70;99.90;;;;;;5053221;28;20171;-90
2021/03/08 06:33:00;;;;;;;9.20;5.60;;;-0.20;99.90;;;;;;5087139;28;20278;-89
2021/03/08 06:35:25;;;;;;;16.53;7.00;;;0.50;99.90;;;;;;5086601;28;20176;-89
2021/03/08 06:37:51;;;;;;;15.00;7.30;;;0.60;99.90;;;;;;5050112;28;20211;-91
2021/03/08 06:40:18;;;;;;;13.20;5.93;;;-1.00;99.90;;;;;;5066510;28;20190;-90
2021/03/08 06:42:45;;;;;;;12.67;5.37;;;-1.00;99.90;;;;;;5083465;28;21662;-90
2021/03/08 06:45:11;;;;;;;9.17;6.37;;;-0.40;99.90;;;;;;5049992;28;20199;-89
2021/03/08 06:47:36;;;;;;;11.23;6.20;;;-0.90;99.90;;;;;;5053699;28;20172;-88
2021/03/08 06:50:03;;;;;;;10.00;5.43;;;1.00;99.90;;;;;;5053810;28;20635;-91
2021/03/08 06:52:42;;;;;;;10.67;5.63;;;-0.90;99.90;;;;;;5053048;28;20172;-91
2021/03/08 06:55:09;;;;;;;13.67;6.40;;;1.00;99.90;;;;;;5052268;28;20298;-89
2021/03/08 06:57:36;;;;;;;11.70;6.40;;;-0.80;99.90;;;;;;5077052;28;20175;-90
2021/03/08 07:00:11;;;;;;;9.50;5.07;;;1.10;99.90;;;;;;5027569;28;20215;-89
2021/03/08 07:02:47;;;;;;;15.90;6.80;;;-0.70;99.90;;;;;;5049861;28;20175;-89
2021/03/08 07:05:23;;;;;;;11.13;6.37;;;-0.70;99.90;;;;;;5034162;28;20233;-89
2021/03/08 07:08:06;;;;;;;11.97;6.17;;;-0.70;99.90;;;;;;5053483;28;20182;-89
2021/03/08 07:10:42;;;;;;;10.30;6.03;;;-0.20;99.90;;;;;;5053799;28;20700;-93
2021/03/08 07:13:10;;;;;;;9.90;4.83;;;-0.50;99.90;;;;;;5055105;28;20184;-87
2021/03/08 07:15:55;;;;;;;10.37;4.23;;;0.20;99.90;;;;;;5053036;28;20184;-87
2021/03/08 07:18:22;;;;;;;8.80;5.10;;;-0.40;99.90;;;;;;5050084;28;20185;-87
2021/03/08 07:21:15;;;;;;;7.87;4.50;;;-0.40;99.90;;;;;;5053457;28;20231;-88
2021/03/08 07:23:41;;;;;;;7.60;5.20;;;-0.40;99.90;;;;;;5052696;28;20306;-88
2021/03/08 07:26:08;;;;;;;8.23;5.03;;;-0.50;99.90;;;;;;5053418;28;20639;-89
2021/03/08 07:28:34;;;;;;;10.97;5.73;;;-0.30;99.90;;;;;;5051931;28;20265;-89
2021/03/08 07:31:00;;;;;;;8.23;5.10;;;0.70;99.90;;;;;;5036018;28;20194;-87
2021/03/08 07:33:26;;;;;;;11.77;4.70;;;0.20;99.90;;;;;;5052244;28;20176;-89
2021/03/08 07:35:53;;;;;;;5.77;4.20;;;0.10;99.90;;;;;;5050149;28;20624;-87
2021/03/08 07:38:36;;;;;;;6.67;3.77;;;0.10;99.90;;;;;;5051274;28;20538;-86
2021/03/08 07:41:16;;;;;;;8.30;3.70;;;0.10;99.90;;;;;;5049830;28;20171;-86
2021/03/08 07:43:42;;;;;;;7.60;3.63;;;0.10;99.90;;;;;;5049606;28;20211;-87
2021/03/08 07:46:29;;;;;;;5.70;3.53;;;1.10;99.90;;;;;;5051150;28;20204;-86
2021/03/08 07:48:59;;;;;;;7.27;3.73;;;1.10;99.90;;;;;;5050826;28;20263;-87
2021/03/08 07:51:25;;;;;;;5.43;3.10;;;0.20;99.90;;;;;;5052632;28;20211;-88
2021/03/08 07:54:02;;;;;;;5.83;3.83;;;0.10;99.90;;;;;;5052637;28;20187;-89
2021/03/08 07:56:28;;;;;;;4.27;2.90;;;1.40;99.90;;;;;;5049675;28;20212;-86
2021/03/08 07:58:54;;;;;;;7.90;4.10;;;0.20;99.90;;;;;;5051177;28;20248;-86
2021/03/08 08:01:21;;;;;;;5.27;3.43;;;0.90;99.90;;;;;;5052520;28;20180;-86
2021/03/08 08:03:47;;;;;;;7.73;3.97;;;0.40;99.90;;;;;;5050357;28;20265;-88
2021/03/08 08:06:20;;;;;;;10.23;3.90;;;0.20;99.90;;;;;;5051522;28;20271;-88
2021/03/08 08:08:51;;;;;;;4.83;3.20;;;0.30;99.90;;;;;;5051617;28;20535;-89
2021/03/08 08:11:21;;;;;;;4.30;2.53;;;1.90;99.90;;;;;;5052474;28;20504;-86
2021/03/08 08:14:06;;;;;;;8.13;3.40;;;0.30;99.90;;;;;;5052021;28;20211;-86
2021/03/08 08:16:33;;;;;;;7.83;3.53;;;0.40;99.90;;;;;;5051989;28;20164;-87
2021/03/08 08:19:07;;;;;;;4.13;2.70;;;1.90;99.90;;;;;;5050963;28;20515;-86
2021/03/08 08:21:44;;;;;;;5.97;3.20;;;0.60;99.90;;;;;;5031291;28;20180;-87
2021/03/08 08:24:23;;;;;;;5.17;3.07;;;0.60;99.90;;;;;;5032734;28;20270;-88
2021/03/08 08:26:56;;;;;;;5.33;3.23;;;0.60;99.00;;;;;;5037143;28;20231;-86
2021/03/08 08:29:26;;;;;;;6.20;3.20;;;1.20;96.40;;;;;;5048449;28;20186;-88
2021/03/08 08:32:04;;;;;;;7.23;3.13;;;0.90;97.40;;;;;;5035279;28;20182;-87
2021/03/08 08:34:46;;;;;;;4.53;2.70;;;0.60;97.50;;;;;;5050217;28;20659;-87
2021/03/08 08:37:17;;;;;;;4.37;2.60;;;0.70;99.10;;;;;;5051129;28;20164;-87
2021/03/08 08:40:02;;;;;;;6.93;2.87;;;1.00;98.90;;;;;;5047855;28;20180;-87
2021/03/08 08:42:29;;;;;;;5.43;3.00;;;1.10;97.30;;;;;;5040118;28;20192;-85
2021/03/08 08:44:56;;;;;;;3.77;2.50;;;2.50;97.20;;;;;;5051542;28;20308;-84
2021/03/08 08:47:29;;;;;;;6.47;3.57;;;2.80;95.80;;;;;;5075417;28;20650;-85
2021/03/08 08:49:58;;;;;;;5.00;3.00;;;1.20;95.60;;;;;;5051432;28;20229;-85
2021/03/08 08:52:44;;;;;;;4.77;2.93;;;1.20;94.30;;;;;;5051436;28;20176;-85
2021/03/08 08:55:10;;;;;;;5.53;2.90;;;1.30;95.70;;;;;;5050459;28;20179;-86
2021/03/08 08:57:36;;;;;;;7.63;4.40;;;1.30;91.60;;;;;;5049604;28;20183;-86
2021/03/08 09:00:21;;;;;;;4.13;2.93;;;2.20;92.60;;;;;;5051194;28;20177;-85
2021/03/08 09:02:47;;;;;;;7.33;3.87;;;1.20;93.40;;;;;;5063355;28;20252;-84
2021/03/08 09:05:28;;;;;;;5.07;3.13;;;1.40;91.70;;;;;;5051051;28;20238;-88
2021/03/08 09:08:27;;;;;;;4.13;2.47;;;1.50;90.10;;;;;;5050163;28;20189;-87
2021/03/08 09:10:53;;;;;;;5.67;2.40;;;1.50;90.70;;;;;;5050025;28;20190;-86
2021/03/08 09:13:19;;;;;;;7.10;3.90;;;1.50;89.20;;;;;;5051589;28;20171;-86
2021/03/08 09:15:44;;;;;;;4.83;2.80;;;2.00;90.00;;;;;;5033752;28;20172;-84
2021/03/08 09:18:12;;;;;;;5.70;2.93;;;2.70;85.40;;;;;;5034397;28;20180;-84
2021/03/08 09:20:39;;;;;;;8.73;3.10;;;1.70;83.70;;;;;;5049956;28;20180;-84
2021/03/08 09:23:21;;;;;;;5.20;3.33;;;2.30;85.20;;;;;;5051723;28;20662;-84
2021/03/08 09:25:54;;;;;;;10.17;4.07;;;1.40;83.60;;;;;;5050474;28;20250;-84
2021/03/08 09:28:20;;;;;;;4.73;2.20;;;2.10;83.90;;;;;;5052081;28;20209;-85
2021/03/08 09:30:48;;;;;;;4.43;2.17;;;1.20;82.50;;;;;;5052092;28;20258;-84
2021/03/08 09:33:18;;;;;;;4.87;1.93;;;1.70;85.00;;;;;;5052089;28;20174;-84
2021/03/08 09:35:48;;;;;;;7.77;2.60;;;1.80;85.20;;;;;;5051427;28;20202;-86
2021/03/08 09:38:21;;;;;;;5.63;2.83;;;2.50;86.60;;;;;;5050403;28;20653;-86
2021/03/08 09:40:53;;;;;;;3.57;2.70;;;1.70;81.70;;;;;;5050371;28;20215;-85
2021/03/08 09:43:36;;;;;;;5.07;2.63;;;1.90;80.40;;;;;;5051443;28;20182;-85
2021/03/08 09:46:08;;;;;;;6.40;3.07;;;2.20;81.10;;;;;;5052132;28;20175;-85
2021/03/08 09:48:38;;;;;;;6.10;3.20;;;1.50;80.90;;;;;;5055910;28;20192;-85
2021/03/08 09:51:16;;;;;;;8.97;2.40;;;1.80;81.40;;;;;;5055891;28;20168;-84
2021/03/08 09:53:44;;;;;;;4.47;3.07;;;2.00;79.00;;;;;;5055675;28;20259;-85
2021/03/08 09:56:15;;;;;;;3.97;2.90;;;3.60;80.90;;;;;;5055735;28;20174;-85
2021/03/08 09:58:42;;;;;;;7.97;3.67;;;2.00;81.50;;;;;;5055858;28;20179;-84
2021/03/08 10:01:22;;;;;;;5.53;2.90;;;2.00;79.70;;;;;;5055780;28;20187;-84
2021/03/08 10:03:49;;;;;;;8.90;2.53;;;1.90;78.50;;;;;;5054903;28;20226;-85
2021/03/08 10:06:33;;;;;;;7.07;3.20;;;2.90;79.50;;;;;;5054460;28;20541;-85
2021/03/08 10:09:24;;;;;;;5.40;2.63;;;2.20;78.00;;;;;;5053888;28;20179;-85
2021/03/08 10:12:03;;;;;;;3.77;2.63;;;3.30;78.30;;;;;;5053687;28;20629;-84
2021/03/08 10:14:30;;;;;;;5.60;2.10;;;2.50;76.20;;;;;;5053959;28;20179;-85
2021/03/08 10:17:10;;;;;;;4.30;2.63;;;2.50;74.10;;;;;;5054109;28;20180;-85
2021/03/08 10:19:36;;;;;;;4.63;2.30;;;2.60;73.80;;;;;;5055146;28;20183;-85
2021/03/08 10:22:02;;;;;;;5.30;2.50;;;2.70;74.40;;;;;;5036653;28;20684;-85
2021/03/08 10:24:38;;;;;;;7.07;3.13;;;2.60;75.10;;;;;;5054792;28;20297;-85
2021/03/08 10:27:10;;;;;;;3.03;2.37;;;2.30;75.40;;;;;;5053627;28;20188;-85
2021/03/08 10:29:39;;;;;;;4.03;2.50;;;2.10;74.60;;;;;;5055335;28;20160;-87
2021/03/08 10:32:07;;;;;;;4.23;2.60;;;2.40;74.30;;;;;;5054358;28;20180;-85
2021/03/08 10:34:33;;;;;;;4.53;2.67;;;2.70;73.00;;;;;;5053891;28;20210;-85
2021/03/08 10:36:59;;;;;;;6.43;3.00;;;2.60;71.60;;;;;;5053257;28;20533;-86
2021/03/08 10:39:25;;;;;;;4.53;2.50;;;3.70;73.30;;;;;;5053541;28;20184;-86
2021/03/08 10:41:52;;;;;;;7.20;2.67;;;2.80;72.70;;;;;;5017861;28;20274;-84
2021/03/08 10:44:19;;;;;;;5.43;3.10;;;2.80;69.80;;;;;;5053309;28;20664;-85
2021/03/08 10:46:45;;;;;;;5.60;3.07;;;2.90;70.70;;;;;;5053406;28;20547;-84
2021/03/08 10:49:12;;;;;;;2.13;1.93;;;3.10;68.60;;;;;;5078382;28;20538;-84
2021/03/08 10:51:40;;;;;;;5.67;2.90;;;2.50;70.60;;;;;;5054232;28;20194;-84
2021/03/08 10:54:09;;;;;;;3.40;2.30;;;2.40;73.70;;;;;;5052698;28;20189;-83
2021/03/08 10:56:37;;;;;;;4.73;3.00;;;2.20;75.80;;;;;;5052899;28;20188;-84
2021/03/08 10:59:04;;;;;;;5.67;3.10;;;3.10;77.50;;;;;;5072128;28;20183;-84
2021/03/08 11:01:30;;;;;;;7.47;2.90;;;1.90;75.30;;;;;;5039996;28;20191;-84
2021/03/08 11:03:57;;;;;;;7.83;2.80;;;2.00;77.00;;;;;;5053313;28;20250;-84
2021/03/08 11:06:24;;;;;;;4.20;2.80;;;2.60;75.60;;;;;;5054261;28;20184;-84
2021/03/08 11:08:58;;;;;;;4.67;3.03;;;3.30;73.80;;;;;;5053347;28;20819;-83
2021/03/08 11:11:29;;;;;;;6.63;3.00;;;2.40;72.40;;;;;;5086242;28;20200;-84
2021/03/08 11:14:04;;;;;;;5.70;2.70;;;2.90;73.40;;;;;;5085849;28;20556;-85
2021/03/08 11:16:31;;;;;;;11.00;3.30;;;2.10;74.70;;;;;;5053114;28;20195;-85
2021/03/08 11:19:20;;;;;;;4.37;2.40;;;3.30;76.70;;;;;;5085661;28;20249;-85
2021/03/08 11:22:04;;;;;;;4.33;2.73;;;2.00;77.10;;;;;;5085906;28;20514;-84
2021/03/08 11:24:31;;;;;;;6.53;3.23;;;2.00;78.40;;;;;;5053259;28;20450;-84
2021/03/08 11:27:12;;;;;;;5.03;2.67;;;2.80;75.90;;;;;;5051796;28;20636;-84
2021/03/08 11:29:41;;;;;;;7.00;2.87;;;2.50;73.70;;;;;;5051363;28;20174;-83
2021/03/08 11:32:08;;;;;;;5.07;3.00;;;2.90;71.60;;;;;;5052972;28;20189;-85
2021/03/08 11:34:45;;;;;;;10.50;3.00;;;2.80;71.10;;;;;;5053309;28;20556;-85
2021/03/08 11:37:18;;;;;;;9.63;3.30;;;3.00;69.60;;;;;;5052690;28;20664;-84
2021/03/08 11:39:46;;;;;;;4.47;2.43;;;2.90;67.70;;;;;;5052504;28;20195;-85
2021/03/08 11:42:13;;;;;;;8.37;2.73;;;3.60;71.40;;;;;;5053472;28;20207;-85
2021/03/08 11:44:39;;;;;;;9.87;3.57;;;2.30;73.00;;;;;;5054206;28;20214;-85
2021/03/08 11:47:06;;;;;;;6.07;2.57;;;2.20;75.30;;;;;;5051677;28;20180;-83
2021/03/08 11:49:31;;;;;;;6.27;3.67;;;2.10;76.90;;;;;;5077170;28;20183;-84
2021/03/08 11:51:57;;;;;;;4.77;2.87;;;2.00;77.70;;;;;;5053582;28;20183;-83
2021/03/08 11:54:23;;;;;;;8.23;2.93;;;3.10;78.20;;;;;;5052291;28;20184;-84
2021/03/08 11:56:49;;;;;;;4.80;2.43;;;1.80;78.90;;;;;;5052154;28;20183;-85
2021/03/08 11:59:14;;;;;;;4.47;2.60;;;2.80;80.00;;;;;;5052902;28;20762;-84
2021/03/08 12:01:40;;;;;;;4.77;2.43;;;2.60;81.00;;;;;;5051886;28;20723;-85
2021/03/08 12:04:06;;;;;;;7.93;3.03;;;2.40;78.50;;;;;;5052104;28;20323;-83
2021/03/08 12:06:32;;;;;;;6.03;2.73;;;1.50;80.80;;;;;;5077016;28;20582;-84
2021/03/08 12:08:57;;;;;;;4.83;3.03;;;1.70;85.00;;;;;;5050753;28;20282;-83
2021/03/08 12:11:23;;;;;;;7.57;2.83;;;2.70;86.20;;;;;;5051524;28;20184;-84
2021/03/08 12:13:49;;;;;;;3.73;2.50;;;2.10;86.50;;;;;;5052874;28;20241;-83
2021/03/08 12:16:14;;;;;;;5.90;3.00;;;2.40;82.40;;;;;;5052440;28;20180;-86
2021/03/08 12:18:40;;;;;;;9.33;3.40;;;3.20;82.50;;;;;;5051809;28;20301;-84
2021/03/08 12:21:06;;;;;;;7.80;3.13;;;2.20;83.60;;;;;;5053113;28;20207;-83
2021/03/08 12:23:32;;;;;;;8.77;3.23;;;2.30;81.90;;;;;;5053014;28;20267;-84
2021/03/08 12:25:57;;;;;;;5.47;3.03;;;2.40;78.20;;;;;;5053112;28;20192;-84
2021/03/08 12:28:23;;;;;;;4.67;2.60;;;3.40;77.00;;;;;;5052286;28;20205;-83
2021/03/08 12:30:49;;;;;;;5.40;2.57;;;2.30;77.00;;;;;;5051480;28;20184;-83
2021/03/08 12:33:14;;;;;;;4.70;2.60;;;2.20;77.50;;;;;;5052453;28;20212;-83
2021/03/08 12:35:40;;;;;;;5.40;2.47;;;1.90;78.40;;;;;;5051160;28;20226;-84
2021/03/08 12:38:06;;;;;;;4.40;2.90;;;1.90;79.00;;;;;;5076168;28;20652;-84
2021/03/08 12:40:31;;;;;;;5.93;2.67;;;1.90;78.30;;;;;;5051420;28;20195;-84
2021/03/08 12:42:57;;;;;;;5.13;3.23;;;1.90;78.30;;;;;;5051006;28;20194;-84
2021/03/08 12:45:24;;;;;;;5.27;2.83;;;1.90;79.30;;;;;;5050640;28;20715;-84
2021/03/08 12:47:50;;;;;;;22.83;8.60;;;1.90;79.50;;;;;;5052598;28;20188;-83
2021/03/08 12:50:16;;;;;;;11.47;4.57;;;2.00;80.10;;;;;;5057115;28;20190;-83
2021/03/08 12:52:41;;;;;;;8.77;4.00;;;2.80;79.30;;;;;;5051937;28;20628;-85
2021/03/08 12:55:08;;;;;;;10.63;3.90;;;2.00;78.50;;;;;;5051842;28;20188;-84
2021/03/08 12:57:33;;;;;;;8.93;4.63;;;2.00;77.90;;;;;;5052075;28;20180;-85
2021/03/08 13:00:00;;;;;;;4.57;2.60;;;2.10;78.60;;;;;;5059322;28;20206;-84
2021/03/08 13:02:25;;;;;;;8.10;3.10;;;2.30;75.20;;;;;;5050603;28;20198;-85
2021/03/08 13:04:51;;;;;;;6.53;2.57;;;2.30;73.70;;;;;;5051584;28;20223;-84